Time;durP1;ratioP1;P1;durP2;ratioP2;P2;SDS_P1;SDS_P2;PMS_P1;PMS_P2;Temp;Humidity;BMP_temperature;BMP_pressure;BME280_temperature;BME280_humidity;BME280_pressure;Samples;Min_cycle;Max_cycle;Signal;HPM_P1;HPM_P2
2021/01/05 00:02:11;;;;;;;56.63;26.43;;;3.90;99.90;;;;;;4932970;29;20274;-63
2021/01/05 00:04:37;;;;;;;57.50;25.90;;;4.00;99.90;;;;;;4933628;29;20190;-64
2021/01/05 00:07:04;;;;;;;55.93;27.30;;;4.00;99.90;;;;;;4933024;29;20297;-64
2021/01/05 00:09:30;;;;;;;61.63;25.00;;;3.90;99.90;;;;;;4931452;29;20191;-63
2021/01/05 00:12:02;;;;;;;60.23;26.47;;;3.90;99.90;;;;;;4932735;29;20468;-64
2021/01/05 00:14:28;;;;;;;57.70;27.07;;;3.90;99.90;;;;;;4933539;29;20481;-64
2021/01/05 00:16:54;;;;;;;57.10;26.80;;;4.00;99.90;;;;;;4933038;29;20458;-62
2021/01/05 00:19:21;;;;;;;56.73;26.53;;;4.00;99.90;;;;;;4930721;29;20184;-63
2021/01/05 00:21:47;;;;;;;56.20;28.53;;;4.00;99.90;;;;;;4931872;29;20455;-64
2021/01/05 00:24:13;;;;;;;64.57;27.60;;;4.10;99.90;;;;;;4923263;29;20982;-65
2021/01/05 00:26:38;;;;;;;52.53;27.23;;;4.20;99.90;;;;;;4914195;29;20445;-66
2021/01/05 00:29:05;;;;;;;57.37;25.90;;;4.30;99.90;;;;;;4932884;29;20258;-65
2021/01/05 00:31:31;;;;;;;61.20;27.97;;;4.20;99.90;;;;;;4930835;29;20194;-66
2021/01/05 00:33:57;;;;;;;59.53;26.07;;;4.20;99.90;;;;;;4932441;29;20472;-65
2021/01/05 00:36:23;;;;;;;60.00;26.70;;;4.20;99.90;;;;;;4932908;29;20928;-64
2021/01/05 00:38:49;;;;;;;57.83;26.37;;;4.20;99.90;;;;;;4933047;29;20444;-65
2021/01/05 00:41:15;;;;;;;63.73;26.77;;;4.20;99.90;;;;;;4932926;29;20448;-63
2021/01/05 00:43:41;;;;;;;57.63;26.97;;;4.20;99.90;;;;;;4932619;29;20205;-63
2021/01/05 00:46:09;;;;;;;57.40;29.47;;;4.00;99.90;;;;;;4932872;29;20546;-62
2021/01/05 00:48:35;;;;;;;62.80;26.77;;;4.10;99.90;;;;;;4931066;29;20242;-64
2021/01/05 00:51:00;;;;;;;61.27;26.17;;;4.10;99.90;;;;;;4932952;29;20442;-62
2021/01/05 00:53:26;;;;;;;50.20;26.10;;;4.10;99.90;;;;;;4932659;29;20491;-63
2021/01/05 00:55:52;;;;;;;57.03;27.53;;;4.00;99.90;;;;;;4932843;29;20205;-64
2021/01/05 00:58:23;;;;;;;50.17;25.40;;;4.10;99.90;;;;;;4932285;29;20776;-67
2021/01/05 01:00:52;;;;;;;53.93;26.60;;;4.10;99.90;;;;;;4933005;29;20200;-65
2021/01/05 01:03:19;;;;;;;56.37;26.77;;;4.20;99.90;;;;;;4932619;29;20799;-65
2021/01/05 01:05:44;;;;;;;49.00;24.00;;;4.20;99.90;;;;;;4932617;29;20448;-65
2021/01/05 01:08:10;;;;;;;60.57;28.23;;;4.20;99.90;;;;;;4933296;29;20502;-66
2021/01/05 01:10:38;;;;;;;57.30;26.03;;;4.20;99.90;;;;;;4931860;29;20194;-64
2021/01/05 01:13:04;;;;;;;67.97;26.53;;;4.40;99.90;;;;;;4926997;29;20475;-66
2021/01/05 01:15:30;;;;;;;60.77;27.73;;;4.40;99.90;;;;;;4932447;29;20454;-66
2021/01/05 01:17:55;;;;;;;53.77;26.33;;;4.40;99.90;;;;;;4932847;29;20951;-65
2021/01/05 01:20:21;;;;;;;51.23;26.27;;;4.50;99.90;;;;;;4929512;29;20195;-64
2021/01/05 01:22:47;;;;;;;61.13;27.37;;;4.40;99.90;;;;;;4932208;29;20222;-66
2021/01/05 01:25:13;;;;;;;56.57;25.70;;;4.40;99.90;;;;;;4932894;29;20455;-66
2021/01/05 01:27:38;;;;;;;48.90;26.30;;;4.40;99.90;;;;;;4931816;29;20486;-64
2021/01/05 01:30:06;;;;;;;52.40;25.80;;;4.40;99.90;;;;;;4932705;29;20190;-63
2021/01/05 01:32:33;;;;;;;70.30;28.53;;;4.50;99.90;;;;;;4932600;29;20670;-64
2021/01/05 01:34:58;;;;;;;58.30;27.80;;;4.50;99.90;;;;;;4932384;29;20464;-61
2021/01/05 01:37:24;;;;;;;55.60;27.47;;;4.60;99.90;;;;;;4932132;29;20543;-62
2021/01/05 01:39:50;;;;;;;65.80;27.20;;;4.60;99.90;;;;;;4930337;29;20188;-64
2021/01/05 01:42:18;;;;;;;60.97;27.10;;;4.60;99.90;;;;;;4931773;29;20731;-64
2021/01/05 01:44:45;;;;;;;54.40;28.33;;;4.70;99.90;;;;;;4960482;28;20387;-63
2021/01/05 01:47:27;;;;;;;48.37;25.73;;;4.70;99.90;;;;;;4932589;29;20853;-63
2021/01/05 01:50:15;;;;;;;45.73;23.90;;;4.70;99.90;;;;;;4934803;29;20447;-64
2021/01/05 01:53:02;;;;;;;57.70;25.53;;;4.60;99.90;;;;;;4936108;29;20844;-63
2021/01/05 01:55:46;;;;;;;56.80;24.13;;;4.70;99.90;;;;;;4936130;29;20440;-63
2021/01/05 01:58:26;;;;;;;52.83;25.03;;;4.70;99.90;;;;;;4934533;29;20790;-62
2021/01/05 02:01:42;;;;;;;50.97;27.17;;;4.70;99.90;;;;;;4932840;29;20949;-64
2021/01/05 02:04:31;;;;;;;53.30;23.57;;;4.60;99.90;;;;;;4914488;29;20470;-62
2021/01/05 02:06:59;;;;;;;43.70;23.20;;;4.70;99.90;;;;;;4914505;29;20474;-63
2021/01/05 02:09:46;;;;;;;50.47;23.00;;;4.60;99.90;;;;;;4929187;29;20452;-66
2021/01/05 02:12:19;;;;;;;54.30;26.50;;;4.60;99.90;;;;;;4935584;29;20857;-62
2021/01/05 02:15:27;;;;;;;44.30;22.60;;;4.50;99.90;;;;;;4935197;29;20471;-62
2021/01/05 02:18:10;;;;;;;46.67;25.10;;;4.50;99.90;;;;;;4935305;29;20486;-63
2021/01/05 02:20:46;;;;;;;49.70;23.13;;;4.60;99.90;;;;;;4934934;29;20946;-64
2021/01/05 02:23:44;;;;;;;48.90;23.27;;;4.50;99.90;;;;;;4934862;29;20450;-62
2021/01/05 02:26:23;;;;;;;52.27;25.90;;;4.50;99.90;;;;;;4933391;29;20440;-63
2021/01/05 02:28:57;;;;;;;44.23;25.10;;;4.50;99.90;;;;;;4934988;29;20846;-64
2021/01/05 02:31:35;;;;;;;52.37;24.47;;;4.60;99.90;;;;;;4935400;29;20529;-62
2021/01/05 02:34:21;;;;;;;52.87;23.40;;;4.70;99.90;;;;;;4933963;29;21023;-65
2021/01/05 02:37:15;;;;;;;54.00;25.80;;;4.70;99.90;;;;;;4935435;29;21008;-61
2021/01/05 02:39:56;;;;;;;56.20;24.97;;;4.80;99.90;;;;;;4928140;29;20838;-64
2021/01/05 02:42:33;;;;;;;47.07;26.40;;;4.90;99.90;;;;;;4935216;29;20450;-64
2021/01/05 02:45:11;;;;;;;50.43;23.00;;;5.00;99.90;;;;;;4933247;29;20443;-63
2021/01/05 02:48:04;;;;;;;49.00;25.17;;;4.90;99.90;;;;;;4932817;29;20448;-63
2021/01/05 02:51:00;;;;;;;43.50;23.73;;;4.90;99.90;;;;;;4928815;29;20441;-63
2021/01/05 02:53:53;;;;;;;44.10;24.23;;;4.90;99.90;;;;;;4926338;29;20559;-62
2021/01/05 02:56:59;;;;;;;53.17;24.80;;;4.90;99.90;;;;;;4934903;29;20454;-61
2021/01/05 02:59:48;;;;;;;44.20;23.47;;;4.90;99.90;;;;;;4934800;29;20432;-62
2021/01/05 03:02:47;;;;;;;43.70;24.37;;;4.90;99.90;;;;;;4914833;29;20530;-64
2021/01/05 03:05:13;;;;;;;45.50;22.77;;;4.90;99.90;;;;;;4933420;29;20922;-64
2021/01/05 03:07:39;;;;;;;50.20;24.70;;;5.00;99.90;;;;;;4933874;29;20536;-63
2021/01/05 03:10:10;;;;;;;45.13;23.47;;;5.10;99.90;;;;;;4934740;29;20198;-63
2021/01/05 03:12:58;;;;;;;44.97;22.63;;;5.20;99.90;;;;;;4930571;29;20733;-64
2021/01/05 03:15:52;;;;;;;45.00;23.93;;;5.20;99.90;;;;;;4933997;29;21108;-63
2021/01/05 03:18:34;;;;;;;44.50;24.13;;;5.30;99.90;;;;;;4932990;29;20498;-62
2021/01/05 03:21:12;;;;;;;49.90;23.90;;;5.30;99.90;;;;;;4930352;29;20440;-63
2021/01/05 03:23:39;;;;;;;41.77;22.53;;;5.40;99.90;;;;;;4932352;29;20443;-62
2021/01/05 03:26:08;;;;;;;44.97;23.73;;;5.30;99.90;;;;;;4934147;29;20699;-65
2021/01/05 03:28:35;;;;;;;43.40;22.77;;;5.30;99.90;;;;;;4934291;29;20442;-62
2021/01/05 03:31:20;;;;;;;43.37;22.93;;;5.20;99.90;;;;;;4932601;29;20432;-64
2021/01/05 03:33:50;;;;;;;43.30;22.33;;;5.20;99.90;;;;;;4933817;29;20468;-64
2021/01/05 03:36:15;;;;;;;41.47;22.70;;;5.20;99.90;;;;;;4933943;29;20436;-63
2021/01/05 03:38:41;;;;;;;38.17;21.77;;;5.20;99.90;;;;;;4932957;29;21000;-64
2021/01/05 03:41:08;;;;;;;45.60;25.07;;;5.10;99.90;;;;;;4933788;29;20187;-63
2021/01/05 03:43:33;;;;;;;51.17;26.33;;;5.10;99.90;;;;;;4933925;29;20442;-63
2021/01/05 03:45:59;;;;;;;49.43;25.97;;;5.20;99.90;;;;;;4933401;29;20444;-62
2021/01/05 03:48:25;;;;;;;50.37;25.20;;;5.30;99.90;;;;;;4933296;29;20547;-63
2021/01/05 03:50:50;;;;;;;51.10;28.93;;;5.30;99.90;;;;;;4929742;29;20195;-62
2021/01/05 03:53:16;;;;;;;55.67;30.10;;;5.40;99.90;;;;;;4929156;29;20227;-62
2021/01/05 03:55:41;;;;;;;48.30;24.30;;;5.40;99.90;;;;;;4928620;29;20247;-64
2021/01/05 03:58:07;;;;;;;48.97;24.20;;;5.30;99.90;;;;;;4928933;29;20546;-65
2021/01/05 04:00:33;;;;;;;43.20;23.03;;;5.30;99.90;;;;;;4914805;29;20650;-64
2021/01/05 04:02:58;;;;;;;42.27;23.30;;;5.20;99.90;;;;;;4925482;29;20263;-62
2021/01/05 04:05:26;;;;;;;53.50;25.00;;;5.20;99.90;;;;;;4932474;29;20180;-63
2021/01/05 04:07:52;;;;;;;44.23;26.27;;;5.10;99.90;;;;;;4933321;29;20549;-63
2021/01/05 04:10:18;;;;;;;44.63;25.93;;;5.10;99.90;;;;;;4933382;29;20439;-64
2021/01/05 04:12:44;;;;;;;44.80;23.90;;;5.10;99.90;;;;;;4933400;29;20242;-63
2021/01/05 04:15:24;;;;;;;47.23;21.93;;;5.00;99.90;;;;;;4932256;29;20475;-66
2021/01/05 04:17:51;;;;;;;51.77;23.83;;;5.00;99.90;;;;;;4929936;29;20278;-63
2021/01/05 04:20:18;;;;;;;43.10;22.37;;;5.00;99.90;;;;;;4933119;29;20449;-63
2021/01/05 04:22:44;;;;;;;45.77;25.50;;;4.90;99.90;;;;;;4932451;29;20459;-64
2021/01/05 04:25:12;;;;;;;49.97;24.73;;;4.90;99.90;;;;;;4931413;29;20802;-64
2021/01/05 04:27:37;;;;;;;40.17;22.03;;;4.80;99.90;;;;;;4933214;29;20195;-64
2021/01/05 04:30:07;;;;;;;47.47;23.20;;;4.80;99.90;;;;;;4933138;29;20443;-64
2021/01/05 04:32:32;;;;;;;41.10;22.37;;;4.70;99.90;;;;;;4933142;29;20194;-63
2021/01/05 04:34:58;;;;;;;43.67;25.67;;;4.60;99.90;;;;;;4932877;29;20498;-64
2021/01/05 04:37:24;;;;;;;43.73;22.13;;;4.50;99.90;;;;;;4933087;29;20198;-64
2021/01/05 04:39:50;;;;;;;42.40;22.40;;;4.40;99.90;;;;;;4946050;28;20449;-66
2021/01/05 04:42:22;;;;;;;45.57;22.93;;;4.30;99.90;;;;;;4932185;29;20188;-62
2021/01/05 04:44:55;;;;;;;43.77;21.90;;;4.30;99.90;;;;;;4931603;29;20190;-64
2021/01/05 04:47:48;;;;;;;44.03;22.30;;;4.20;99.90;;;;;;4928863;29;20476;-64
2021/01/05 04:50:25;;;;;;;57.17;25.30;;;4.20;99.90;;;;;;4932951;29;20901;-63
2021/01/05 04:53:22;;;;;;;48.43;22.97;;;4.10;99.90;;;;;;4932937;29;20448;-66
2021/01/05 04:55:56;;;;;;;49.23;24.97;;;4.10;99.90;;;;;;4932972;29;20849;-63
2021/01/05 04:58:27;;;;;;;49.00;23.13;;;4.30;99.90;;;;;;4932176;29;20473;-63
2021/01/05 05:00:55;;;;;;;44.70;20.93;;;4.30;99.90;;;;;;4929887;29;20961;-62
2021/01/05 05:03:41;;;;;;;52.70;25.63;;;4.20;99.90;;;;;;4927742;29;21032;-63
2021/01/05 05:06:54;;;;;;;45.63;22.00;;;4.10;99.90;;;;;;4926634;29;20455;-63
2021/01/05 05:09:28;;;;;;;48.13;22.93;;;4.10;99.90;;;;;;4887996;29;20459;-68
2021/01/05 05:12:06;;;;;;;41.20;21.53;;;4.10;99.90;;;;;;4888195;29;20557;-69
2021/01/05 05:14:39;;;;;;;44.17;22.60;;;4.00;99.90;;;;;;4916127;29;20488;-67
2021/01/05 05:17:38;;;;;;;46.20;21.73;;;4.00;99.90;;;;;;4935182;29;20441;-65
2021/01/05 05:20:23;;;;;;;38.57;21.13;;;4.00;99.90;;;;;;4931534;29;20449;-69
2021/01/05 05:23:06;;;;;;;54.63;23.60;;;4.00;99.90;;;;;;4933564;29;20445;-68
2021/01/05 05:25:43;;;;;;;49.80;24.17;;;4.10;99.90;;;;;;4934398;29;20440;-68
2021/01/05 05:28:17;;;;;;;49.93;24.43;;;4.10;99.90;;;;;;4936599;29;20470;-67
2021/01/05 05:30:45;;;;;;;37.03;18.37;;;4.20;99.90;;;;;;4934950;29;20447;-64
2021/01/05 05:33:35;;;;;;;48.20;22.93;;;4.10;99.90;;;;;;4936359;29;20547;-68
2021/01/05 05:36:19;;;;;;;47.87;24.70;;;4.10;99.90;;;;;;4935003;29;20520;-70
2021/01/05 05:39:09;;;;;;;48.90;23.20;;;4.20;99.90;;;;;;4935636;29;20463;-69
2021/01/05 05:42:01;;;;;;;44.87;21.67;;;4.30;99.90;;;;;;4935825;29;20452;-70
2021/01/05 05:44:41;;;;;;;38.10;20.50;;;4.30;99.90;;;;;;4936218;29;20443;-69
2021/01/05 05:47:18;;;;;;;44.20;20.57;;;4.30;99.90;;;;;;4935903;29;20446;-66
2021/01/05 05:50:04;;;;;;;41.70;22.40;;;4.30;99.90;;;;;;4934870;29;20446;-67
2021/01/05 05:52:39;;;;;;;37.63;19.13;;;4.30;99.90;;;;;;4933981;29;20886;-64
2021/01/05 05:55:30;;;;;;;42.67;19.27;;;4.30;99.90;;;;;;4934987;29;20572;-66
2021/01/05 05:57:59;;;;;;;46.40;21.20;;;4.20;99.90;;;;;;4934342;29;20518;-64
2021/01/05 06:00:38;;;;;;;40.03;20.90;;;4.20;99.90;;;;;;4935871;29;20444;-68
2021/01/05 06:03:06;;;;;;;36.30;19.17;;;4.30;99.90;;;;;;4935603;29;20439;-68
2021/01/05 06:05:34;;;;;;;41.00;20.30;;;4.30;99.90;;;;;;4936023;29;20459;-68
2021/01/05 06:08:01;;;;;;;39.07;21.40;;;4.30;99.90;;;;;;4935284;29;20502;-64
2021/01/05 06:10:26;;;;;;;38.10;19.53;;;4.20;99.90;;;;;;4935548;29;20436;-64
2021/01/05 06:12:53;;;;;;;44.20;20.43;;;4.20;99.90;;;;;;4927509;29;20823;-65
2021/01/05 06:15:19;;;;;;;40.17;22.00;;;4.10;99.90;;;;;;4935353;29;20207;-63
2021/01/05 06:17:45;;;;;;;39.70;20.87;;;4.10;99.90;;;;;;4935492;29;20444;-64
2021/01/05 06:20:12;;;;;;;36.23;21.27;;;4.10;99.90;;;;;;4934975;29;20447;-66
2021/01/05 06:22:38;;;;;;;42.63;21.40;;;4.10;99.90;;;;;;4922277;29;20646;-64
2021/01/05 06:25:05;;;;;;;32.17;18.83;;;4.10;99.90;;;;;;4933105;29;20452;-65
2021/01/05 06:27:30;;;;;;;39.33;19.90;;;4.20;99.90;;;;;;4935119;29;20185;-65
2021/01/05 06:29:56;;;;;;;29.30;17.13;;;4.10;99.90;;;;;;4933045;29;20482;-67
2021/01/05 06:32:22;;;;;;;36.50;19.57;;;4.20;99.90;;;;;;4934644;29;20198;-67
2021/01/05 06:34:47;;;;;;;37.40;19.87;;;4.20;99.90;;;;;;4935299;29;20213;-65
2021/01/05 06:37:14;;;;;;;37.47;21.00;;;4.20;99.90;;;;;;4934926;29;20706;-66
2021/01/05 06:39:39;;;;;;;36.33;19.40;;;4.30;99.90;;;;;;4933109;29;20750;-66
2021/01/05 06:42:05;;;;;;;35.17;19.63;;;4.30;99.90;;;;;;4935067;29;20450;-65
2021/01/05 06:44:31;;;;;;;38.80;19.30;;;4.40;99.90;;;;;;4934749;29;20189;-65
2021/01/05 06:46:56;;;;;;;40.20;20.50;;;4.30;99.90;;;;;;4935320;29;20275;-64
2021/01/05 06:49:26;;;;;;;37.63;19.93;;;4.40;99.90;;;;;;4934555;29;20519;-65
2021/01/05 06:51:55;;;;;;;35.50;19.43;;;4.50;99.90;;;;;;4934598;29;20194;-65
2021/01/05 06:54:21;;;;;;;34.20;18.20;;;4.40;99.90;;;;;;4934554;29;20905;-69
2021/01/05 06:56:55;;;;;;;34.63;18.10;;;4.40;99.90;;;;;;4927615;29;20592;-67
2021/01/05 06:59:22;;;;;;;36.90;20.67;;;4.40;99.90;;;;;;4934290;29;20204;-68
2021/01/05 07:01:54;;;;;;;40.23;19.97;;;4.50;99.90;;;;;;4934952;29;20811;-67
2021/01/05 07:04:21;;;;;;;42.90;19.00;;;4.40;99.90;;;;;;4934205;29;20441;-67
2021/01/05 07:06:47;;;;;;;35.40;18.57;;;4.40;99.90;;;;;;4932090;29;20432;-64
2021/01/05 07:09:14;;;;;;;34.23;17.63;;;4.30;99.90;;;;;;4914140;29;20444;-66
2021/01/05 07:11:40;;;;;;;37.10;20.33;;;4.10;99.90;;;;;;4930740;29;20880;-64
2021/01/05 07:14:05;;;;;;;40.37;21.00;;;4.00;99.90;;;;;;4934457;29;20485;-65
2021/01/05 07:16:31;;;;;;;35.67;17.37;;;4.00;99.90;;;;;;4933911;29;20555;-66
2021/01/05 07:18:57;;;;;;;34.50;17.87;;;4.20;99.90;;;;;;4931348;29;20235;-66
2021/01/05 07:21:23;;;;;;;32.57;18.07;;;4.20;99.90;;;;;;4923110;29;20180;-63
2021/01/05 07:23:49;;;;;;;35.80;17.90;;;4.30;99.90;;;;;;4934065;29;20451;-66
2021/01/05 07:26:15;;;;;;;34.13;22.10;;;4.20;99.90;;;;;;4933041;29;20580;-66
2021/01/05 07:28:41;;;;;;;30.03;19.30;;;4.20;99.90;;;;;;4933689;29;20969;-66
2021/01/05 07:31:06;;;;;;;33.40;18.30;;;4.30;99.90;;;;;;4933855;29;20203;-66
2021/01/05 07:33:32;;;;;;;31.07;17.70;;;4.30;99.90;;;;;;4933680;29;20308;-68
2021/01/05 07:36:01;;;;;;;29.17;16.67;;;4.20;99.90;;;;;;4933973;29;20643;-67
2021/01/05 07:38:27;;;;;;;36.37;18.30;;;4.10;99.90;;;;;;4932569;29;20436;-67
2021/01/05 07:40:53;;;;;;;30.03;17.67;;;4.20;99.90;;;;;;4932809;29;20956;-65
2021/01/05 07:43:18;;;;;;;32.10;17.63;;;4.10;99.90;;;;;;4934101;29;20205;-63
2021/01/05 07:45:44;;;;;;;26.60;15.70;;;4.10;99.90;;;;;;4933894;29;20279;-68
2021/01/05 07:48:10;;;;;;;35.77;18.00;;;4.20;99.90;;;;;;4933627;29;20289;-66
2021/01/05 07:50:35;;;;;;;26.53;16.00;;;4.20;99.90;;;;;;4933845;29;20644;-63
2021/01/05 07:53:02;;;;;;;30.13;16.67;;;4.20;99.90;;;;;;4934307;29;20199;-64
2021/01/05 07:55:32;;;;;;;28.93;16.77;;;4.20;99.90;;;;;;4932700;29;20214;-66
2021/01/05 07:57:59;;;;;;;32.07;17.20;;;4.20;99.90;;;;;;4932590;29;20438;-66
2021/01/05 08:00:26;;;;;;;29.00;17.03;;;4.20;99.90;;;;;;4933269;29;20440;-66
2021/01/05 08:02:53;;;;;;;34.43;20.47;;;4.20;99.90;;;;;;4933614;29;20766;-66
2021/01/05 08:05:22;;;;;;;29.67;16.20;;;4.30;99.90;;;;;;4933423;29;20441;-66
2021/01/05 08:07:48;;;;;;;29.43;16.20;;;4.30;99.90;;;;;;4933276;29;20451;-66
2021/01/05 08:10:20;;;;;;;23.80;14.63;;;4.20;99.90;;;;;;4933609;29;20442;-57
2021/01/05 08:12:47;;;;;;;29.97;16.50;;;4.20;99.90;;;;;;4933072;29;20479;-62
2021/01/05 08:15:22;;;;;;;25.40;14.30;;;4.20;99.90;;;;;;4933020;29;20469;-60
2021/01/05 08:17:49;;;;;;;25.10;15.47;;;4.30;99.90;;;;;;4933325;29;20440;-62
2021/01/05 08:20:21;;;;;;;40.53;20.30;;;4.30;99.90;;;;;;4924868;29;20541;-63
2021/01/05 08:22:47;;;;;;;39.87;21.67;;;4.20;99.90;;;;;;4930838;29;20789;-62
2021/01/05 08:25:14;;;;;;;29.07;15.80;;;4.20;99.90;;;;;;4931319;29;20447;-62
2021/01/05 08:27:41;;;;;;;26.63;16.33;;;4.30;99.90;;;;;;4931159;29;20197;-62
2021/01/05 08:30:07;;;;;;;27.77;14.53;;;4.30;99.90;;;;;;4932734;29;20536;-61
2021/01/05 08:32:33;;;;;;;28.13;16.80;;;4.30;99.90;;;;;;4932886;29;20473;-62
2021/01/05 08:34:59;;;;;;;20.80;11.77;;;4.20;99.90;;;;;;4932500;29;20912;-62
2021/01/05 08:37:25;;;;;;;27.07;17.13;;;4.10;99.90;;;;;;4931912;29;20177;-64
2021/01/05 08:39:50;;;;;;;20.17;12.83;;;4.10;99.90;;;;;;4932714;29;20507;-62
2021/01/05 08:42:16;;;;;;;24.57;16.60;;;4.10;99.90;;;;;;4915743;29;20196;-64
2021/01/05 08:44:43;;;;;;;36.17;20.93;;;4.00;99.90;;;;;;4913443;29;20241;-66
2021/01/05 08:47:08;;;;;;;30.17;18.00;;;4.00;99.90;;;;;;4928774;29;20239;-64
2021/01/05 08:49:34;;;;;;;24.97;13.17;;;4.00;99.90;;;;;;4932321;29;20914;-65
2021/01/05 08:52:00;;;;;;;40.77;15.30;;;4.00;99.90;;;;;;4932258;29;20188;-64
2021/01/05 08:54:26;;;;;;;26.30;15.73;;;3.90;99.90;;;;;;4932597;29;20208;-65
2021/01/05 08:56:56;;;;;;;24.50;13.37;;;3.90;99.90;;;;;;4932278;29;20185;-67
2021/01/05 08:59:22;;;;;;;32.30;16.20;;;3.90;99.90;;;;;;4931326;29;20452;-63
2021/01/05 09:01:48;;;;;;;26.67;15.47;;;3.90;99.90;;;;;;4932203;29;20440;-66
2021/01/05 09:04:14;;;;;;;25.50;13.20;;;4.00;99.90;;;;;;4931906;29;20810;-66
2021/01/05 09:06:40;;;;;;;29.37;17.40;;;4.00;99.90;;;;;;4931903;29;20487;-64
2021/01/05 09:09:06;;;;;;;20.73;13.23;;;4.10;99.90;;;;;;4931945;29;20448;-64
2021/01/05 09:11:32;;;;;;;23.10;13.20;;;4.00;99.90;;;;;;4930797;29;20230;-63
2021/01/05 09:13:58;;;;;;;26.13;14.73;;;3.90;99.90;;;;;;4932192;29;20518;-65
2021/01/05 09:16:29;;;;;;;23.80;14.27;;;3.90;99.90;;;;;;4932049;29;20199;-66
2021/01/05 09:18:56;;;;;;;20.77;12.37;;;4.00;99.90;;;;;;4931720;29;20453;-64
2021/01/05 09:21:24;;;;;;;23.77;13.90;;;4.10;99.90;;;;;;4931894;29;20448;-64
2021/01/05 09:23:51;;;;;;;19.70;12.90;;;4.10;99.90;;;;;;4932176;29;20678;-63
2021/01/05 09:26:37;;;;;;;21.77;13.30;;;4.10;99.90;;;;;;4932048;29;20491;-66
2021/01/05 09:29:05;;;;;;;25.67;12.83;;;4.20;99.90;;;;;;4931594;29;20996;-66
2021/01/05 09:31:31;;;;;;;23.33;12.97;;;4.20;99.90;;;;;;4932390;29;20445;-64
2021/01/05 09:33:57;;;;;;;22.77;13.43;;;4.10;99.90;;;;;;4928015;29;20468;-64
2021/01/05 09:36:33;;;;;;;23.07;13.80;;;4.10;99.90;;;;;;4932218;29;20189;-64
2021/01/05 09:39:00;;;;;;;29.20;14.33;;;4.10;99.90;;;;;;4931978;29;20894;-64
2021/01/05 09:41:30;;;;;;;26.00;15.07;;;4.10;99.90;;;;;;4931928;29;20452;-65
2021/01/05 09:43:56;;;;;;;26.37;14.90;;;4.10;99.90;;;;;;4931673;29;20801;-66
2021/01/05 09:46:23;;;;;;;24.93;14.67;;;4.10;99.90;;;;;;4932098;29;20433;-65
2021/01/05 09:48:49;;;;;;;30.40;18.23;;;4.00;99.90;;;;;;4932065;29;20194;-66
2021/01/05 09:51:23;;;;;;;36.40;19.47;;;3.80;99.90;;;;;;4930554;29;20456;-65
2021/01/05 09:53:49;;;;;;;29.43;16.07;;;3.80;99.90;;;;;;4928973;29;20482;-64
2021/01/05 09:56:15;;;;;;;28.77;17.13;;;3.90;99.90;;;;;;4931893;29;20885;-65
2021/01/05 09:58:41;;;;;;;26.23;14.63;;;3.90;99.90;;;;;;4931046;29;20477;-64
2021/01/05 10:01:07;;;;;;;26.33;14.63;;;3.90;99.90;;;;;;4931778;29;20471;-65
2021/01/05 10:03:33;;;;;;;27.97;14.13;;;4.00;99.90;;;;;;4933189;29;20623;-62
2021/01/05 10:05:58;;;;;;;23.07;13.83;;;4.10;99.90;;;;;;4935348;29;20553;-65
2021/01/05 10:08:24;;;;;;;32.53;15.13;;;4.10;99.90;;;;;;4935297;29;20205;-63
2021/01/05 10:10:50;;;;;;;24.57;14.47;;;4.20;99.90;;;;;;4934740;29;20561;-65
2021/01/05 10:13:15;;;;;;;27.27;16.13;;;4.20;99.90;;;;;;4934777;29;20278;-66
2021/01/05 10:15:41;;;;;;;27.60;14.10;;;4.10;99.90;;;;;;4935241;29;20701;-63
2021/01/05 10:18:07;;;;;;;26.33;15.30;;;4.10;99.90;;;;;;4935315;29;20180;-64
2021/01/05 10:20:32;;;;;;;25.53;13.30;;;4.10;99.90;;;;;;4935404;29;20189;-64
2021/01/05 10:22:58;;;;;;;27.17;14.07;;;4.20;99.90;;;;;;4935525;29;20208;-62
2021/01/05 10:25:24;;;;;;;27.77;15.03;;;4.20;99.90;;;;;;4935521;29;20196;-63
2021/01/05 10:27:50;;;;;;;22.70;13.13;;;4.10;99.90;;;;;;4935141;29;20841;-64
2021/01/05 10:30:17;;;;;;;24.07;13.77;;;4.00;99.90;;;;;;4935479;29;20198;-63
2021/01/05 10:32:44;;;;;;;26.90;15.40;;;3.90;99.90;;;;;;4934976;29;20196;-62
2021/01/05 10:35:15;;;;;;;34.87;16.87;;;3.90;99.90;;;;;;4935407;29;20473;-65
2021/01/05 10:37:43;;;;;;;30.97;16.57;;;3.80;99.90;;;;;;4927182;29;20913;-65
2021/01/05 10:40:09;;;;;;;31.67;15.47;;;3.90;99.90;;;;;;4934583;29;20462;-64
2021/01/05 10:42:40;;;;;;;24.70;15.20;;;4.00;99.90;;;;;;4934798;29;20432;-64
2021/01/05 10:45:07;;;;;;;26.63;14.00;;;4.10;99.90;;;;;;4934199;29;20538;-64
2021/01/05 10:47:33;;;;;;;29.70;14.57;;;;;;;;;;4934120;29;20544;-66
2021/01/05 10:49:59;;;;;;;24.40;13.83;;;4.00;99.90;;;;;;4934180;29;20486;-64
2021/01/05 10:52:25;;;;;;;29.33;16.33;;;4.20;99.90;;;;;;4935042;29;20951;-63
2021/01/05 10:54:51;;;;;;;26.60;13.20;;;4.20;99.90;;;;;;4934868;29;20469;-62
2021/01/05 10:57:17;;;;;;;25.67;14.33;;;4.10;99.90;;;;;;4934633;29;20656;-65
2021/01/05 10:59:42;;;;;;;23.43;13.77;;;4.00;99.90;;;;;;4934257;29;20184;-62
2021/01/05 11:02:09;;;;;;;22.30;13.27;;;3.90;99.90;;;;;;4933372;29;20461;-62
2021/01/05 11:04:35;;;;;;;22.80;13.77;;;3.90;99.90;;;;;;4934643;29;20206;-62
2021/01/05 11:07:04;;;;;;;22.97;13.20;;;4.00;99.90;;;;;;4934126;29;20489;-63
2021/01/05 11:09:30;;;;;;;15.77;11.13;;;4.10;99.90;;;;;;4934112;29;20763;-64
2021/01/05 11:12:10;;;;;;;24.73;15.40;;;4.10;99.90;;;;;;4934196;29;20560;-64
2021/01/05 11:14:36;;;;;;;22.73;13.33;;;4.00;99.90;;;;;;4934240;29;20218;-66
2021/01/05 11:17:01;;;;;;;20.97;12.00;;;4.10;99.90;;;;;;4932987;29;20442;-64
2021/01/05 11:19:27;;;;;;;21.47;13.17;;;4.10;99.90;;;;;;4931430;29;21578;-63
2021/01/05 11:21:53;;;;;;;22.90;13.27;;;4.10;99.90;;;;;;4934037;29;20206;-64
2021/01/05 11:24:19;;;;;;;24.57;13.00;;;4.10;99.90;;;;;;4934246;29;20293;-64
2021/01/05 11:26:46;;;;;;;18.20;13.00;;;4.30;99.90;;;;;;4933866;29;20450;-63
2021/01/05 11:29:12;;;;;;;22.57;12.53;;;4.20;99.90;;;;;;4929978;29;20825;-62
2021/01/05 11:31:38;;;;;;;19.00;12.00;;;4.10;99.90;;;;;;4934065;29;20456;-63
2021/01/05 11:34:04;;;;;;;20.13;12.33;;;4.10;99.90;;;;;;4933873;29;20474;-62
2021/01/05 11:36:30;;;;;;;21.70;12.53;;;4.00;99.90;;;;;;4933037;29;20445;-62
2021/01/05 11:38:57;;;;;;;20.80;13.67;;;4.10;99.90;;;;;;4933401;29;20270;-63
2021/01/05 11:41:23;;;;;;;25.20;13.90;;;4.10;99.90;;;;;;4933124;29;20523;-64
2021/01/05 11:43:48;;;;;;;25.57;14.57;;;4.20;99.90;;;;;;4931875;29;20555;-66
2021/01/05 11:46:14;;;;;;;18.17;12.30;;;4.30;99.90;;;;;;4932312;29;20553;-62
2021/01/05 11:48:40;;;;;;;20.43;12.80;;;4.10;99.90;;;;;;4931851;29;20189;-62
2021/01/05 11:51:05;;;;;;;21.67;13.40;;;4.10;99.90;;;;;;4931822;29;20232;-63
2021/01/05 11:53:31;;;;;;;17.50;13.00;;;4.10;99.90;;;;;;4932984;29;20192;-64
2021/01/05 11:55:56;;;;;;;18.03;11.60;;;4.20;99.90;;;;;;4931824;29;20180;-63
2021/01/05 11:58:22;;;;;;;21.30;12.40;;;4.00;99.90;;;;;;4933529;29;20269;-64
2021/01/05 12:00:48;;;;;;;17.87;12.37;;;4.00;99.90;;;;;;4933876;29;20188;-63
2021/01/05 12:03:13;;;;;;;20.20;12.03;;;6.70;99.90;;;;;;4933085;29;20215;-63
2021/01/05 12:05:39;;;;;;;23.97;12.50;;;4.10;99.90;;;;;;4932921;29;20270;-63
2021/01/05 12:08:05;;;;;;;14.53;10.30;;;4.00;99.90;;;;;;4931835;29;20597;-63
2021/01/05 12:10:30;;;;;;;20.23;12.77;;;3.90;99.90;;;;;;4929323;29;20200;-63
2021/01/05 12:12:56;;;;;;;23.10;13.57;;;3.90;99.90;;;;;;4931737;29;20215;-64
2021/01/05 12:15:21;;;;;;;20.10;12.63;;;4.00;99.90;;;;;;4933188;29;20216;-64
2021/01/05 12:17:47;;;;;;;19.60;11.33;;;4.10;99.90;;;;;;4932715;29;20184;-63
2021/01/05 12:20:13;;;;;;;15.60;11.73;;;4.10;99.90;;;;;;4933242;29;20272;-63
2021/01/05 12:22:38;;;;;;;20.90;12.63;;;4.10;99.90;;;;;;4933334;29;20197;-64
2021/01/05 12:25:05;;;;;;;19.53;11.47;;;4.00;99.90;;;;;;4933256;29;20659;-65
2021/01/05 12:27:30;;;;;;;20.00;12.50;;;4.00;99.90;;;;;;4931954;29;20218;-63
2021/01/05 12:29:56;;;;;;;19.60;12.73;;;4.00;99.90;;;;;;4932372;29;20530;-63
2021/01/05 12:32:22;;;;;;;16.30;10.60;;;4.00;99.90;;;;;;4932596;29;20194;-64
2021/01/05 12:34:50;;;;;;;22.03;11.77;;;4.00;99.90;;;;;;4932778;29;20215;-62
2021/01/05 12:37:20;;;;;;;16.80;11.13;;;4.10;99.90;;;;;;4932948;29;20224;-64
2021/01/05 12:39:46;;;;;;;18.13;12.37;;;4.00;99.90;;;;;;4932401;29;20452;-63
2021/01/05 12:42:25;;;;;;;20.87;14.00;;;4.00;99.90;;;;;;4928476;29;20948;-62
2021/01/05 12:44:52;;;;;;;18.77;11.97;;;4.30;99.90;;;;;;4932758;29;20192;-65
2021/01/05 12:47:18;;;;;;;18.03;11.77;;;4.30;99.90;;;;;;4931435;29;20448;-66
2021/01/05 12:49:45;;;;;;;17.93;11.60;;;4.30;99.90;;;;;;4932378;29;20467;-64
2021/01/05 12:52:12;;;;;;;17.80;12.40;;;4.40;99.90;;;;;;4932640;29;20507;-66
2021/01/05 12:54:39;;;;;;;17.70;12.00;;;4.40;99.90;;;;;;4931414;29;20483;-63